sensor_id;sensor_type;location;lat;lon;timestamp;P1;durP1;ratioP1;P2;durP2;ratioP2
25752;SDS011;13600;50.816;4.416;2023-12-22T00:01:29;22.85;;;3.53;;
25752;SDS011;13600;50.816;4.416;2023-12-22T00:03:55;17.65;;;2.53;;
25752;SDS011;13600;50.816;4.416;2023-12-22T00:06:21;21.58;;;3.42;;
25752;SDS011;13600;50.816;4.416;2023-12-22T00:08:47;20.85;;;3.08;;
25752;SDS011;13600;50.816;4.416;2023-12-22T00:11:12;19.98;;;2.92;;
25752;SDS011;13600;50.816;4.416;2023-12-22T00:13:38;22.58;;;2.88;;
25752;SDS011;13600;50.816;4.416;2023-12-22T00:16:04;20.23;;;3.30;;
25752;SDS011;13600;50.816;4.416;2023-12-22T00:18:30;23.42;;;3.15;;
25752;SDS011;13600;50.816;4.416;2023-12-22T00:20:56;15.57;;;2.63;;
25752;SDS011;13600;50.816;4.416;2023-12-22T00:23:22;26.25;;;3.72;;
25752;SDS011;13600;50.816;4.416;2023-12-22T00:25:48;19.77;;;3.40;;
25752;SDS011;13600;50.816;4.416;2023-12-22T00:28:13;17.75;;;2.70;;
25752;SDS011;13600;50.816;4.416;2023-12-22T00:30:39;17.52;;;2.92;;
25752;SDS011;13600;50.816;4.416;2023-12-22T00:33:04;12.73;;;1.98;;
25752;SDS011;13600;50.816;4.416;2023-12-22T00:35:31;14.32;;;1.88;;
25752;SDS011;13600;50.816;4.416;2023-12-22T00:37:56;12.57;;;1.83;;
25752;SDS011;13600;50.816;4.416;2023-12-22T00:40:22;13.13;;;2.22;;
25752;SDS011;13600;50.816;4.416;2023-12-22T00:42:47;16.95;;;2.78;;
25752;SDS011;13600;50.816;4.416;2023-12-22T00:45:13;20.05;;;3.22;;
25752;SDS011;13600;50.816;4.416;2023-12-22T00:47:39;23.85;;;3.20;;
25752;SDS011;13600;50.816;4.416;2023-12-22T00:50:04;21.13;;;3.10;;
25752;SDS011;13600;50.816;4.416;2023-12-22T00:52:31;20.27;;;2.55;;
25752;SDS011;13600;50.816;4.416;2023-12-22T00:54:57;19.05;;;2.58;;
25752;SDS011;13600;50.816;4.416;2023-12-22T00:57:23;23.48;;;2.83;;
25752;SDS011;13600;50.816;4.416;2023-12-22T00:59:48;18.73;;;3.15;;
25752;SDS011;13600;50.816;4.416;2023-12-22T01:02:15;17.52;;;2.58;;
25752;SDS011;13600;50.816;4.416;2023-12-22T01:04:42;24.40;;;2.75;;
25752;SDS011;13600;50.816;4.416;2023-12-22T01:07:08;23.02;;;2.85;;
25752;SDS011;13600;50.816;4.416;2023-12-22T01:09:34;18.45;;;2.90;;
25752;SDS011;13600;50.816;4.416;2023-12-22T01:12:01;28.73;;;3.97;;
25752;SDS011;13600;50.816;4.416;2023-12-22T01:14:29;25.38;;;3.65;;
25752;SDS011;13600;50.816;4.416;2023-12-22T01:16:55;23.63;;;3.97;;
25752;SDS011;13600;50.816;4.416;2023-12-22T01:19:21;27.50;;;4.30;;
25752;SDS011;13600;50.816;4.416;2023-12-22T01:21:47;32.40;;;4.88;;
25752;SDS011;13600;50.816;4.416;2023-12-22T01:24:13;23.98;;;4.47;;
25752;SDS011;13600;50.816;4.416;2023-12-22T01:26:39;23.88;;;3.80;;
25752;SDS011;13600;50.816;4.416;2023-12-22T01:29:04;24.52;;;3.80;;
25752;SDS011;13600;50.816;4.416;2023-12-22T01:31:30;26.48;;;3.70;;
25752;SDS011;13600;50.816;4.416;2023-12-22T01:33:56;17.70;;;3.83;;
25752;SDS011;13600;50.816;4.416;2023-12-22T01:36:21;23.38;;;3.35;;
25752;SDS011;13600;50.816;4.416;2023-12-22T01:38:47;21.85;;;3.30;;
25752;SDS011;13600;50.816;4.416;2023-12-22T01:41:14;27.58;;;3.75;;
25752;SDS011;13600;50.816;4.416;2023-12-22T01:43:39;25.48;;;3.78;;
25752;SDS011;13600;50.816;4.416;2023-12-22T01:46:05;20.02;;;3.60;;
25752;SDS011;13600;50.816;4.416;2023-12-22T01:48:33;25.80;;;4.13;;
25752;SDS011;13600;50.816;4.416;2023-12-22T01:50:59;29.70;;;4.07;;
25752;SDS011;13600;50.816;4.416;2023-12-22T01:53:27;33.58;;;4.32;;
25752;SDS011;13600;50.816;4.416;2023-12-22T01:55:54;22.30;;;3.47;;
25752;SDS011;13600;50.816;4.416;2023-12-22T01:58:20;23.75;;;4.43;;
25752;SDS011;13600;50.816;4.416;2023-12-22T02:00:48;26.02;;;3.30;;
25752;SDS011;13600;50.816;4.416;2023-12-22T02:03:14;23.75;;;3.70;;
25752;SDS011;13600;50.816;4.416;2023-12-22T02:05:41;28.42;;;4.22;;
25752;SDS011;13600;50.816;4.416;2023-12-22T02:08:08;25.48;;;3.75;;
25752;SDS011;13600;50.816;4.416;2023-12-22T02:10:35;29.08;;;4.10;;
25752;SDS011;13600;50.816;4.416;2023-12-22T02:13:02;27.80;;;4.22;;
25752;SDS011;13600;50.816;4.416;2023-12-22T02:15:29;31.88;;;4.85;;
25752;SDS011;13600;50.816;4.416;2023-12-22T02:17:59;31.90;;;4.10;;
25752;SDS011;13600;50.816;4.416;2023-12-22T02:20:28;29.10;;;4.13;;
25752;SDS011;13600;50.816;4.416;2023-12-22T02:22:55;20.33;;;3.88;;
25752;SDS011;13600;50.816;4.416;2023-12-22T02:25:22;19.30;;;3.90;;
25752;SDS011;13600;50.816;4.416;2023-12-22T02:27:50;26.15;;;4.50;;
25752;SDS011;13600;50.816;4.416;2023-12-22T02:33:07;28.25;;;3.70;;
25752;SDS011;13600;50.816;4.416;2023-12-22T02:35:36;23.80;;;3.53;;
25752;SDS011;13600;50.816;4.416;2023-12-22T02:38:09;22.05;;;4.45;;
25752;SDS011;13600;50.816;4.416;2023-12-22T02:43:11;18.30;;;2.80;;
25752;SDS011;13600;50.816;4.416;2023-12-22T02:45:37;22.85;;;2.78;;
25752;SDS011;13600;50.816;4.416;2023-12-22T02:48:03;15.10;;;2.50;;
25752;SDS011;13600;50.816;4.416;2023-12-22T02:50:29;26.42;;;3.40;;
25752;SDS011;13600;50.816;4.416;2023-12-22T02:52:54;17.95;;;2.97;;
25752;SDS011;13600;50.816;4.416;2023-12-22T02:55:20;13.65;;;2.05;;
25752;SDS011;13600;50.816;4.416;2023-12-22T02:57:46;17.40;;;2.70;;
25752;SDS011;13600;50.816;4.416;2023-12-22T03:00:12;19.08;;;2.63;;
25752;SDS011;13600;50.816;4.416;2023-12-22T03:02:38;20.55;;;2.70;;
25752;SDS011;13600;50.816;4.416;2023-12-22T03:05:04;16.58;;;2.10;;
25752;SDS011;13600;50.816;4.416;2023-12-22T03:07:30;13.60;;;2.40;;
25752;SDS011;13600;50.816;4.416;2023-12-22T03:09:55;16.67;;;2.15;;
25752;SDS011;13600;50.816;4.416;2023-12-22T03:12:21;19.35;;;2.88;;
25752;SDS011;13600;50.816;4.416;2023-12-22T03:14:47;17.60;;;2.72;;
25752;SDS011;13600;50.816;4.416;2023-12-22T03:17:12;14.60;;;2.45;;
25752;SDS011;13600;50.816;4.416;2023-12-22T03:19:39;19.15;;;2.58;;
25752;SDS011;13600;50.816;4.416;2023-12-22T03:22:05;18.23;;;2.70;;
25752;SDS011;13600;50.816;4.416;2023-12-22T03:24:31;20.48;;;2.75;;
25752;SDS011;13600;50.816;4.416;2023-12-22T03:26:56;27.02;;;3.95;;
25752;SDS011;13600;50.816;4.416;2023-12-22T03:29:22;20.98;;;3.30;;
25752;SDS011;13600;50.816;4.416;2023-12-22T03:31:48;19.95;;;3.80;;
25752;SDS011;13600;50.816;4.416;2023-12-22T03:34:13;27.48;;;3.40;;
25752;SDS011;13600;50.816;4.416;2023-12-22T03:36:39;29.17;;;3.40;;
25752;SDS011;13600;50.816;4.416;2023-12-22T03:39:05;25.33;;;3.38;;
25752;SDS011;13600;50.816;4.416;2023-12-22T03:41:31;24.42;;;3.97;;
25752;SDS011;13600;50.816;4.416;2023-12-22T03:43:56;28.27;;;4.22;;
25752;SDS011;13600;50.816;4.416;2023-12-22T03:46:22;19.17;;;3.60;;
25752;SDS011;13600;50.816;4.416;2023-12-22T03:48:48;29.40;;;4.78;;
25752;SDS011;13600;50.816;4.416;2023-12-22T03:51:17;21.55;;;3.15;;
25752;SDS011;13600;50.816;4.416;2023-12-22T03:53:43;25.60;;;3.60;;
25752;SDS011;13600;50.816;4.416;2023-12-22T03:56:08;26.23;;;3.47;;
25752;SDS011;13600;50.816;4.416;2023-12-22T03:58:35;19.90;;;3.08;;
25752;SDS011;13600;50.816;4.416;2023-12-22T04:01:01;14.80;;;2.88;;
25752;SDS011;13600;50.816;4.416;2023-12-22T04:03:26;17.88;;;2.70;;
25752;SDS011;13600;50.816;4.416;2023-12-22T04:05:52;19.23;;;2.85;;
25752;SDS011;13600;50.816;4.416;2023-12-22T04:08:18;20.15;;;2.97;;
25752;SDS011;13600;50.816;4.416;2023-12-22T04:10:45;20.95;;;3.72;;
25752;SDS011;13600;50.816;4.416;2023-12-22T04:13:11;20.42;;;2.67;;
25752;SDS011;13600;50.816;4.416;2023-12-22T04:15:37;20.63;;;2.70;;
25752;SDS011;13600;50.816;4.416;2023-12-22T04:18:03;23.02;;;3.47;;
25752;SDS011;13600;50.816;4.416;2023-12-22T04:20:29;21.30;;;3.47;;
25752;SDS011;13600;50.816;4.416;2023-12-22T04:22:54;20.65;;;3.35;;
25752;SDS011;13600;50.816;4.416;2023-12-22T04:25:20;25.65;;;3.83;;
25752;SDS011;13600;50.816;4.416;2023-12-22T04:27:48;36.22;;;4.55;;
25752;SDS011;13600;50.816;4.416;2023-12-22T04:30:14;32.45;;;4.90;;
25752;SDS011;13600;50.816;4.416;2023-12-22T04:32:40;28.13;;;4.55;;
25752;SDS011;13600;50.816;4.416;2023-12-22T04:35:06;25.15;;;4.22;;
25752;SDS011;13600;50.816;4.416;2023-12-22T04:37:32;32.42;;;4.93;;
25752;SDS011;13600;50.816;4.416;2023-12-22T04:39:58;28.05;;;4.50;;
25752;SDS011;13600;50.816;4.416;2023-12-22T04:42:23;29.80;;;4.70;;
25752;SDS011;13600;50.816;4.416;2023-12-22T04:44:50;25.88;;;3.83;;
25752;SDS011;13600;50.816;4.416;2023-12-22T04:47:16;35.58;;;4.35;;
25752;SDS011;13600;50.816;4.416;2023-12-22T04:49:42;35.85;;;4.78;;
25752;SDS011;13600;50.816;4.416;2023-12-22T04:52:08;34.60;;;5.53;;
25752;SDS011;13600;50.816;4.416;2023-12-22T04:54:34;27.15;;;5.25;;
25752;SDS011;13600;50.816;4.416;2023-12-22T04:57:00;36.67;;;5.47;;
25752;SDS011;13600;50.816;4.416;2023-12-22T04:59:27;34.38;;;4.20;;
25752;SDS011;13600;50.816;4.416;2023-12-22T05:01:53;37.33;;;5.18;;
25752;SDS011;13600;50.816;4.416;2023-12-22T05:04:18;29.00;;;4.45;;
25752;SDS011;13600;50.816;4.416;2023-12-22T05:06:44;33.70;;;4.68;;
25752;SDS011;13600;50.816;4.416;2023-12-22T05:09:10;39.20;;;5.97;;
25752;SDS011;13600;50.816;4.416;2023-12-22T05:11:37;33.22;;;4.05;;
25752;SDS011;13600;50.816;4.416;2023-12-22T05:14:03;40.92;;;5.38;;
25752;SDS011;13600;50.816;4.416;2023-12-22T05:16:29;31.55;;;4.78;;
25752;SDS011;13600;50.816;4.416;2023-12-22T05:18:57;36.17;;;4.82;;
25752;SDS011;13600;50.816;4.416;2023-12-22T05:21:23;36.45;;;5.07;;
25752;SDS011;13600;50.816;4.416;2023-12-22T05:23:49;29.38;;;4.40;;
25752;SDS011;13600;50.816;4.416;2023-12-22T05:26:18;36.10;;;4.97;;
25752;SDS011;13600;50.816;4.416;2023-12-22T05:28:45;36.53;;;5.10;;
25752;SDS011;13600;50.816;4.416;2023-12-22T05:31:11;31.35;;;4.53;;
25752;SDS011;13600;50.816;4.416;2023-12-22T05:33:37;43.58;;;5.28;;
25752;SDS011;13600;50.816;4.416;2023-12-22T05:36:03;35.67;;;4.60;;
25752;SDS011;13600;50.816;4.416;2023-12-22T05:38:29;37.95;;;4.95;;
25752;SDS011;13600;50.816;4.416;2023-12-22T05:40:55;42.55;;;6.25;;
25752;SDS011;13600;50.816;4.416;2023-12-22T05:43:21;44.38;;;5.40;;
25752;SDS011;13600;50.816;4.416;2023-12-22T05:45:47;33.85;;;4.97;;
25752;SDS011;13600;50.816;4.416;2023-12-22T05:48:13;42.28;;;5.55;;
25752;SDS011;13600;50.816;4.416;2023-12-22T05:50:38;41.95;;;6.35;;
25752;SDS011;13600;50.816;4.416;2023-12-22T05:53:04;37.15;;;5.63;;
25752;SDS011;13600;50.816;4.416;2023-12-22T05:55:30;36.03;;;5.25;;
25752;SDS011;13600;50.816;4.416;2023-12-22T05:57:55;42.55;;;5.40;;
25752;SDS011;13600;50.816;4.416;2023-12-22T06:00:22;37.55;;;6.07;;
25752;SDS011;13600;50.816;4.416;2023-12-22T06:02:47;32.33;;;4.88;;
25752;SDS011;13600;50.816;4.416;2023-12-22T06:05:13;37.35;;;5.22;;
25752;SDS011;13600;50.816;4.416;2023-12-22T06:07:39;39.88;;;5.65;;
25752;SDS011;13600;50.816;4.416;2023-12-22T06:10:06;43.88;;;5.93;;
25752;SDS011;13600;50.816;4.416;2023-12-22T06:12:34;29.27;;;5.25;;
25752;SDS011;13600;50.816;4.416;2023-12-22T06:15:00;40.28;;;5.80;;
25752;SDS011;13600;50.816;4.416;2023-12-22T06:17:26;32.00;;;6.53;;
25752;SDS011;13600;50.816;4.416;2023-12-22T06:19:52;37.90;;;6.90;;
25752;SDS011;13600;50.816;4.416;2023-12-22T06:22:17;36.20;;;4.88;;
25752;SDS011;13600;50.816;4.416;2023-12-22T06:24:44;31.55;;;5.97;;
25752;SDS011;13600;50.816;4.416;2023-12-22T06:27:10;35.83;;;5.75;;
25752;SDS011;13600;50.816;4.416;2023-12-22T06:29:35;27.20;;;4.25;;
25752;SDS011;13600;50.816;4.416;2023-12-22T06:32:01;29.85;;;4.65;;
25752;SDS011;13600;50.816;4.416;2023-12-22T06:34:27;20.42;;;3.72;;
25752;SDS011;13600;50.816;4.416;2023-12-22T06:36:53;29.20;;;4.50;;
25752;SDS011;13600;50.816;4.416;2023-12-22T06:39:19;25.40;;;3.80;;
25752;SDS011;13600;50.816;4.416;2023-12-22T06:41:45;32.25;;;4.20;;
25752;SDS011;13600;50.816;4.416;2023-12-22T06:44:10;24.05;;;3.78;;
25752;SDS011;13600;50.816;4.416;2023-12-22T06:46:36;27.83;;;3.85;;
25752;SDS011;13600;50.816;4.416;2023-12-22T06:49:02;18.23;;;3.13;;
25752;SDS011;13600;50.816;4.416;2023-12-22T06:51:28;16.15;;;3.42;;
25752;SDS011;13600;50.816;4.416;2023-12-22T06:53:55;19.15;;;3.08;;
25752;SDS011;13600;50.816;4.416;2023-12-22T06:56:22;21.98;;;3.15;;
25752;SDS011;13600;50.816;4.416;2023-12-22T06:58:51;16.77;;;3.35;;
25752;SDS011;13600;50.816;4.416;2023-12-22T07:01:18;13.70;;;2.40;;
25752;SDS011;13600;50.816;4.416;2023-12-22T07:03:47;20.63;;;3.15;;
25752;SDS011;13600;50.816;4.416;2023-12-22T07:06:17;17.02;;;2.03;;
25752;SDS011;13600;50.816;4.416;2023-12-22T07:08:45;17.77;;;2.92;;
25752;SDS011;13600;50.816;4.416;2023-12-22T07:11:23;16.23;;;2.58;;
25752;SDS011;13600;50.816;4.416;2023-12-22T07:13:49;15.98;;;2.33;;
25752;SDS011;13600;50.816;4.416;2023-12-22T07:16:15;15.77;;;1.98;;
25752;SDS011;13600;50.816;4.416;2023-12-22T07:18:41;16.10;;;2.75;;
25752;SDS011;13600;50.816;4.416;2023-12-22T07:21:07;14.23;;;2.00;;
25752;SDS011;13600;50.816;4.416;2023-12-22T07:23:33;12.30;;;2.50;;
25752;SDS011;13600;50.816;4.416;2023-12-22T07:25:58;11.38;;;2.28;;
25752;SDS011;13600;50.816;4.416;2023-12-22T07:28:24;17.02;;;1.90;;
25752;SDS011;13600;50.816;4.416;2023-12-22T07:30:49;13.23;;;2.05;;
25752;SDS011;13600;50.816;4.416;2023-12-22T07:33:15;10.98;;;1.70;;
25752;SDS011;13600;50.816;4.416;2023-12-22T07:35:41;13.38;;;2.67;;
25752;SDS011;13600;50.816;4.416;2023-12-22T07:38:06;17.70;;;2.78;;
25752;SDS011;13600;50.816;4.416;2023-12-22T07:40:34;14.68;;;3.13;;
25752;SDS011;13600;50.816;4.416;2023-12-22T07:42:59;11.38;;;2.22;;
25752;SDS011;13600;50.816;4.416;2023-12-22T07:45:25;9.18;;;1.63;;
25752;SDS011;13600;50.816;4.416;2023-12-22T07:47:50;10.27;;;2.67;;
25752;SDS011;13600;50.816;4.416;2023-12-22T07:50:17;14.13;;;2.28;;
25752;SDS011;13600;50.816;4.416;2023-12-22T07:52:43;12.30;;;2.00;;
25752;SDS011;13600;50.816;4.416;2023-12-22T07:55:15;9.65;;;1.98;;
25752;SDS011;13600;50.816;4.416;2023-12-22T07:57:41;11.27;;;2.28;;
25752;SDS011;13600;50.816;4.416;2023-12-22T08:00:06;7.88;;;1.90;;
25752;SDS011;13600;50.816;4.416;2023-12-22T08:02:34;9.02;;;2.08;;
25752;SDS011;13600;50.816;4.416;2023-12-22T08:05:00;8.20;;;1.50;;
25752;SDS011;13600;50.816;4.416;2023-12-22T08:07:25;7.82;;;1.90;;
25752;SDS011;13600;50.816;4.416;2023-12-22T08:09:51;8.57;;;1.70;;
25752;SDS011;13600;50.816;4.416;2023-12-22T08:12:17;8.30;;;1.67;;
25752;SDS011;13600;50.816;4.416;2023-12-22T08:14:42;8.65;;;1.90;;
25752;SDS011;13600;50.816;4.416;2023-12-22T08:17:08;4.80;;;1.40;;
25752;SDS011;13600;50.816;4.416;2023-12-22T08:19:35;7.35;;;1.80;;
25752;SDS011;13600;50.816;4.416;2023-12-22T08:22:03;4.82;;;1.40;;
25752;SDS011;13600;50.816;4.416;2023-12-22T08:24:29;6.88;;;1.40;;
25752;SDS011;13600;50.816;4.416;2023-12-22T08:26:54;3.58;;;1.52;;
25752;SDS011;13600;50.816;4.416;2023-12-22T08:29:20;7.97;;;1.63;;
25752;SDS011;13600;50.816;4.416;2023-12-22T08:31:45;6.82;;;1.63;;
25752;SDS011;13600;50.816;4.416;2023-12-22T08:34:11;7.00;;;2.03;;
25752;SDS011;13600;50.816;4.416;2023-12-22T08:36:37;7.43;;;1.70;;
25752;SDS011;13600;50.816;4.416;2023-12-22T08:39:03;6.85;;;1.92;;
25752;SDS011;13600;50.816;4.416;2023-12-22T08:41:30;6.50;;;2.10;;
25752;SDS011;13600;50.816;4.416;2023-12-22T08:44:01;9.70;;;3.15;;
25752;SDS011;13600;50.816;4.416;2023-12-22T08:46:27;8.65;;;2.58;;
25752;SDS011;13600;50.816;4.416;2023-12-22T08:48:55;9.32;;;4.22;;
25752;SDS011;13600;50.816;4.416;2023-12-22T08:51:21;8.30;;;3.47;;
25752;SDS011;13600;50.816;4.416;2023-12-22T08:53:46;10.45;;;4.22;;
25752;SDS011;13600;50.816;4.416;2023-12-22T08:56:12;11.43;;;5.03;;
25752;SDS011;13600;50.816;4.416;2023-12-22T08:58:37;9.32;;;3.95;;
25752;SDS011;13600;50.816;4.416;2023-12-22T09:01:03;12.88;;;5.70;;
25752;SDS011;13600;50.816;4.416;2023-12-22T09:03:32;13.13;;;5.35;;
25752;SDS011;13600;50.816;4.416;2023-12-22T09:05:58;11.57;;;4.32;;
25752;SDS011;13600;50.816;4.416;2023-12-22T09:08:24;16.65;;;5.72;;
25752;SDS011;13600;50.816;4.416;2023-12-22T09:10:51;15.82;;;5.07;;
25752;SDS011;13600;50.816;4.416;2023-12-22T09:13:18;12.38;;;4.90;;
25752;SDS011;13600;50.816;4.416;2023-12-22T09:15:44;16.25;;;5.15;;
25752;SDS011;13600;50.816;4.416;2023-12-22T09:18:13;20.33;;;6.78;;
25752;SDS011;13600;50.816;4.416;2023-12-22T09:20:39;12.57;;;4.70;;
25752;SDS011;13600;50.816;4.416;2023-12-22T09:23:06;14.63;;;5.68;;
25752;SDS011;13600;50.816;4.416;2023-12-22T09:25:34;15.60;;;3.72;;
25752;SDS011;13600;50.816;4.416;2023-12-22T09:28:00;13.60;;;4.07;;
25752;SDS011;13600;50.816;4.416;2023-12-22T09:30:26;8.90;;;2.70;;
25752;SDS011;13600;50.816;4.416;2023-12-22T09:32:52;7.50;;;2.95;;
25752;SDS011;13600;50.816;4.416;2023-12-22T09:35:18;7.97;;;2.40;;
25752;SDS011;13600;50.816;4.416;2023-12-22T09:37:43;10.13;;;3.10;;
25752;SDS011;13600;50.816;4.416;2023-12-22T09:40:09;10.40;;;2.58;;
25752;SDS011;13600;50.816;4.416;2023-12-22T09:42:37;13.45;;;3.03;;
25752;SDS011;13600;50.816;4.416;2023-12-22T09:45:05;12.07;;;3.00;;
25752;SDS011;13600;50.816;4.416;2023-12-22T09:47:35;11.93;;;2.25;;
25752;SDS011;13600;50.816;4.416;2023-12-22T09:50:03;5.93;;;2.03;;
25752;SDS011;13600;50.816;4.416;2023-12-22T09:52:30;8.18;;;2.22;;
25752;SDS011;13600;50.816;4.416;2023-12-22T09:54:58;7.75;;;2.70;;
25752;SDS011;13600;50.816;4.416;2023-12-22T09:57:24;9.15;;;2.30;;
25752;SDS011;13600;50.816;4.416;2023-12-22T09:59:53;9.77;;;2.42;;
25752;SDS011;13600;50.816;4.416;2023-12-22T10:02:19;10.77;;;2.30;;
25752;SDS011;13600;50.816;4.416;2023-12-22T10:04:45;10.32;;;2.20;;
25752;SDS011;13600;50.816;4.416;2023-12-22T10:07:11;5.57;;;2.00;;
25752;SDS011;13600;50.816;4.416;2023-12-22T10:09:39;9.68;;;3.22;;
25752;SDS011;13600;50.816;4.416;2023-12-22T10:12:07;11.52;;;2.70;;
25752;SDS011;13600;50.816;4.416;2023-12-22T10:14:36;9.93;;;2.45;;
25752;SDS011;13600;50.816;4.416;2023-12-22T10:17:04;6.13;;;2.30;;
25752;SDS011;13600;50.816;4.416;2023-12-22T10:19:30;8.65;;;2.33;;
25752;SDS011;13600;50.816;4.416;2023-12-22T10:21:55;13.80;;;2.53;;
25752;SDS011;13600;50.816;4.416;2023-12-22T10:24:40;8.93;;;2.15;;
25752;SDS011;13600;50.816;4.416;2023-12-22T10:27:15;7.53;;;1.98;;
25752;SDS011;13600;50.816;4.416;2023-12-22T10:29:57;10.68;;;2.92;;
25752;SDS011;13600;50.816;4.416;2023-12-22T10:32:23;7.90;;;2.10;;
25752;SDS011;13600;50.816;4.416;2023-12-22T10:34:51;6.28;;;2.20;;
25752;SDS011;13600;50.816;4.416;2023-12-22T10:37:17;9.18;;;2.10;;
25752;SDS011;13600;50.816;4.416;2023-12-22T10:39:42;10.43;;;2.72;;
25752;SDS011;13600;50.816;4.416;2023-12-22T10:42:11;10.88;;;2.65;;
25752;SDS011;13600;50.816;4.416;2023-12-22T10:44:36;10.52;;;2.42;;
25752;SDS011;13600;50.816;4.416;2023-12-22T10:47:06;9.23;;;2.55;;
25752;SDS011;13600;50.816;4.416;2023-12-22T10:49:32;6.32;;;2.13;;
25752;SDS011;13600;50.816;4.416;2023-12-22T10:51:59;9.82;;;2.03;;
25752;SDS011;13600;50.816;4.416;2023-12-22T10:54:24;16.10;;;6.95;;
25752;SDS011;13600;50.816;4.416;2023-12-22T10:56:52;7.53;;;2.30;;
25752;SDS011;13600;50.816;4.416;2023-12-22T10:59:19;3.90;;;1.60;;
25752;SDS011;13600;50.816;4.416;2023-12-22T11:01:48;7.00;;;1.75;;
25752;SDS011;13600;50.816;4.416;2023-12-22T11:04:17;7.45;;;2.05;;
25752;SDS011;13600;50.816;4.416;2023-12-22T11:06:45;3.13;;;1.60;;
25752;SDS011;13600;50.816;4.416;2023-12-22T11:09:14;9.90;;;1.77;;
25752;SDS011;13600;50.816;4.416;2023-12-22T11:11:42;9.30;;;2.17;;
25752;SDS011;13600;50.816;4.416;2023-12-22T11:14:08;9.27;;;1.70;;
25752;SDS011;13600;50.816;4.416;2023-12-22T11:16:35;7.53;;;2.08;;
25752;SDS011;13600;50.816;4.416;2023-12-22T11:19:03;9.38;;;1.75;;
25752;SDS011;13600;50.816;4.416;2023-12-22T11:21:29;5.10;;;1.80;;
25752;SDS011;13600;50.816;4.416;2023-12-22T11:23:55;6.15;;;1.80;;
25752;SDS011;13600;50.816;4.416;2023-12-22T11:26:22;3.65;;;1.60;;
25752;SDS011;13600;50.816;4.416;2023-12-22T11:28:51;8.98;;;2.97;;
25752;SDS011;13600;50.816;4.416;2023-12-22T11:31:17;12.38;;;5.80;;
25752;SDS011;13600;50.816;4.416;2023-12-22T11:33:44;5.05;;;2.33;;
25752;SDS011;13600;50.816;4.416;2023-12-22T11:36:11;5.97;;;1.80;;
25752;SDS011;13600;50.816;4.416;2023-12-22T11:38:38;6.60;;;1.80;;
25752;SDS011;13600;50.816;4.416;2023-12-22T11:41:09;5.45;;;1.33;;
25752;SDS011;13600;50.816;4.416;2023-12-22T11:43:44;6.28;;;1.63;;
25752;SDS011;13600;50.816;4.416;2023-12-22T11:46:11;10.10;;;2.67;;
25752;SDS011;13600;50.816;4.416;2023-12-22T11:48:37;13.45;;;3.88;;
25752;SDS011;13600;50.816;4.416;2023-12-22T11:51:12;9.57;;;3.75;;
25752;SDS011;13600;50.816;4.416;2023-12-22T11:53:41;5.80;;;1.90;;
25752;SDS011;13600;50.816;4.416;2023-12-22T11:56:08;7.88;;;2.38;;
25752;SDS011;13600;50.816;4.416;2023-12-22T11:58:41;6.15;;;2.60;;
25752;SDS011;13600;50.816;4.416;2023-12-22T12:01:09;13.32;;;2.67;;
25752;SDS011;13600;50.816;4.416;2023-12-22T12:08:43;6.43;;;1.90;;
25752;SDS011;13600;50.816;4.416;2023-12-22T12:11:09;5.78;;;3.08;;
25752;SDS011;13600;50.816;4.416;2023-12-22T12:13:35;18.42;;;5.63;;
25752;SDS011;13600;50.816;4.416;2023-12-22T12:16:06;8.07;;;1.92;;
25752;SDS011;13600;50.816;4.416;2023-12-22T12:18:32;3.58;;;1.70;;
25752;SDS011;13600;50.816;4.416;2023-12-22T12:20:59;5.30;;;2.30;;
25752;SDS011;13600;50.816;4.416;2023-12-22T12:23:25;6.63;;;2.95;;
25752;SDS011;13600;50.816;4.416;2023-12-22T12:25:54;6.13;;;2.17;;
25752;SDS011;13600;50.816;4.416;2023-12-22T12:28:31;37.05;;;8.30;;
25752;SDS011;13600;50.816;4.416;2023-12-22T12:30:58;6.80;;;1.55;;
25752;SDS011;13600;50.816;4.416;2023-12-22T12:33:25;6.65;;;1.17;;
25752;SDS011;13600;50.816;4.416;2023-12-22T12:35:52;7.55;;;1.20;;
25752;SDS011;13600;50.816;4.416;2023-12-22T12:38:36;4.15;;;1.00;;
25752;SDS011;13600;50.816;4.416;2023-12-22T12:41:09;5.10;;;1.13;;
25752;SDS011;13600;50.816;4.416;2023-12-22T12:43:40;6.18;;;1.00;;
25752;SDS011;13600;50.816;4.416;2023-12-22T12:46:09;8.77;;;1.90;;
25752;SDS011;13600;50.816;4.416;2023-12-22T12:48:35;6.13;;;0.93;;
25752;SDS011;13600;50.816;4.416;2023-12-22T12:51:04;4.90;;;1.20;;
25752;SDS011;13600;50.816;4.416;2023-12-22T12:53:31;9.48;;;1.40;;
25752;SDS011;13600;50.816;4.416;2023-12-22T12:56:00;7.93;;;1.27;;
25752;SDS011;13600;50.816;4.416;2023-12-22T12:58:29;8.48;;;1.10;;
25752;SDS011;13600;50.816;4.416;2023-12-22T13:01:08;9.63;;;0.90;;
25752;SDS011;13600;50.816;4.416;2023-12-22T13:03:53;8.68;;;1.13;;
25752;SDS011;13600;50.816;4.416;2023-12-22T13:06:20;9.00;;;1.10;;
25752;SDS011;13600;50.816;4.416;2023-12-22T13:08:50;7.80;;;1.00;;
25752;SDS011;13600;50.816;4.416;2023-12-22T13:11:20;6.40;;;2.05;;
25752;SDS011;13600;50.816;4.416;2023-12-22T13:13:56;6.72;;;2.58;;
25752;SDS011;13600;50.816;4.416;2023-12-22T13:16:22;8.30;;;2.03;;
25752;SDS011;13600;50.816;4.416;2023-12-22T13:18:54;12.85;;;2.33;;
25752;SDS011;13600;50.816;4.416;2023-12-22T13:21:21;6.30;;;1.42;;
25752;SDS011;13600;50.816;4.416;2023-12-22T13:24:10;8.40;;;1.13;;
25752;SDS011;13600;50.816;4.416;2023-12-22T13:26:39;7.45;;;1.40;;
25752;SDS011;13600;50.816;4.416;2023-12-22T13:29:06;8.73;;;1.33;;
25752;SDS011;13600;50.816;4.416;2023-12-22T13:31:32;7.82;;;1.48;;
25752;SDS011;13600;50.816;4.416;2023-12-22T13:34:01;6.50;;;1.33;;
25752;SDS011;13600;50.816;4.416;2023-12-22T13:36:27;8.18;;;1.38;;
25752;SDS011;13600;50.816;4.416;2023-12-22T13:38:58;5.80;;;1.08;;
25752;SDS011;13600;50.816;4.416;2023-12-22T13:41:24;6.57;;;1.13;;
25752;SDS011;13600;50.816;4.416;2023-12-22T13:43:50;6.85;;;1.00;;
25752;SDS011;13600;50.816;4.416;2023-12-22T13:46:15;10.95;;;1.00;;
25752;SDS011;13600;50.816;4.416;2023-12-22T13:48:41;4.03;;;0.90;;
25752;SDS011;13600;50.816;4.416;2023-12-22T13:51:08;8.60;;;1.08;;
25752;SDS011;13600;50.816;4.416;2023-12-22T13:53:35;9.60;;;1.15;;
25752;SDS011;13600;50.816;4.416;2023-12-22T13:56:00;10.20;;;1.40;;
25752;SDS011;13600;50.816;4.416;2023-12-22T13:58:26;4.78;;;1.10;;
25752;SDS011;13600;50.816;4.416;2023-12-22T14:00:52;4.68;;;0.90;;
25752;SDS011;13600;50.816;4.416;2023-12-22T14:03:19;7.53;;;1.30;;
25752;SDS011;13600;50.816;4.416;2023-12-22T14:05:47;5.78;;;1.00;;
25752;SDS011;13600;50.816;4.416;2023-12-22T14:08:14;5.60;;;0.93;;
25752;SDS011;13600;50.816;4.416;2023-12-22T14:10:47;10.85;;;1.20;;
25752;SDS011;13600;50.816;4.416;2023-12-22T14:13:16;4.90;;;1.00;;
25752;SDS011;13600;50.816;4.416;2023-12-22T14:15:42;6.47;;;1.08;;
25752;SDS011;13600;50.816;4.416;2023-12-22T14:18:09;6.25;;;1.23;;
25752;SDS011;13600;50.816;4.416;2023-12-22T14:20:34;3.95;;;0.82;;
25752;SDS011;13600;50.816;4.416;2023-12-22T14:23:00;5.90;;;1.27;;
25752;SDS011;13600;50.816;4.416;2023-12-22T14:25:26;6.03;;;0.93;;
25752;SDS011;13600;50.816;4.416;2023-12-22T14:27:52;5.18;;;1.10;;
25752;SDS011;13600;50.816;4.416;2023-12-22T14:30:22;5.50;;;1.25;;
25752;SDS011;13600;50.816;4.416;2023-12-22T14:32:48;5.68;;;1.17;;
25752;SDS011;13600;50.816;4.416;2023-12-22T14:35:15;14.60;;;2.40;;
25752;SDS011;13600;50.816;4.416;2023-12-22T14:37:40;6.50;;;1.20;;
25752;SDS011;13600;50.816;4.416;2023-12-22T14:40:09;5.50;;;1.08;;
25752;SDS011;13600;50.816;4.416;2023-12-22T14:42:34;6.80;;;1.17;;
25752;SDS011;13600;50.816;4.416;2023-12-22T14:45:00;5.45;;;1.00;;
25752;SDS011;13600;50.816;4.416;2023-12-22T14:47:29;8.80;;;1.23;;